sensor_id;sensor_type;location;lat;lon;timestamp;P1;durP1;ratioP1;P2;durP2;ratioP2
71969;SDS011;59838;52.152;5.436;2022-11-15T00:00:28;25.37;;;10.27;;
71969;SDS011;59838;52.152;5.436;2022-11-15T00:02:55;27.08;;;11.02;;
71969;SDS011;59838;52.152;5.436;2022-11-15T00:05:21;25.88;;;10.15;;
71969;SDS011;59838;52.152;5.436;2022-11-15T00:07:48;22.65;;;10.48;;
71969;SDS011;59838;52.152;5.436;2022-11-15T00:10:21;25.50;;;11.15;;
71969;SDS011;59838;52.152;5.436;2022-11-15T00:12:47;28.33;;;11.50;;
71969;SDS011;59838;52.152;5.436;2022-11-15T00:15:13;26.55;;;11.60;;
71969;SDS011;59838;52.152;5.436;2022-11-15T00:17:40;27.67;;;10.90;;
71969;SDS011;59838;52.152;5.436;2022-11-15T00:20:06;24.50;;;11.30;;
71969;SDS011;59838;52.152;5.436;2022-11-15T00:22:33;27.42;;;11.18;;
71969;SDS011;59838;52.152;5.436;2022-11-15T00:25:00;31.47;;;11.90;;
71969;SDS011;59838;52.152;5.436;2022-11-15T00:27:27;25.65;;;10.80;;
71969;SDS011;59838;52.152;5.436;2022-11-15T00:29:53;37.75;;;13.13;;
71969;SDS011;59838;52.152;5.436;2022-11-15T00:32:20;34.38;;;13.60;;
71969;SDS011;59838;52.152;5.436;2022-11-15T00:34:46;36.75;;;12.75;;
71969;SDS011;59838;52.152;5.436;2022-11-15T00:37:12;39.10;;;13.80;;
71969;SDS011;59838;52.152;5.436;2022-11-15T00:39:39;38.58;;;13.50;;
71969;SDS011;59838;52.152;5.436;2022-11-15T00:42:05;39.70;;;13.25;;
71969;SDS011;59838;52.152;5.436;2022-11-15T00:44:31;34.10;;;12.70;;
71969;SDS011;59838;52.152;5.436;2022-11-15T00:46:58;30.95;;;11.80;;
71969;SDS011;59838;52.152;5.436;2022-11-15T00:49:24;36.20;;;12.30;;
71969;SDS011;59838;52.152;5.436;2022-11-15T00:51:50;36.53;;;12.65;;
71969;SDS011;59838;52.152;5.436;2022-11-15T00:54:17;42.25;;;13.02;;
71969;SDS011;59838;52.152;5.436;2022-11-15T00:56:43;37.35;;;13.23;;
71969;SDS011;59838;52.152;5.436;2022-11-15T00:59:10;41.65;;;13.80;;
71969;SDS011;59838;52.152;5.436;2022-11-15T01:01:36;37.90;;;13.37;;
71969;SDS011;59838;52.152;5.436;2022-11-15T01:04:02;42.22;;;14.43;;
71969;SDS011;59838;52.152;5.436;2022-11-15T01:06:29;41.38;;;14.15;;
71969;SDS011;59838;52.152;5.436;2022-11-15T01:08:55;38.53;;;13.07;;
71969;SDS011;59838;52.152;5.436;2022-11-15T01:11:22;40.50;;;13.60;;
71969;SDS011;59838;52.152;5.436;2022-11-15T01:13:48;39.03;;;12.63;;
71969;SDS011;59838;52.152;5.436;2022-11-15T01:16:16;40.75;;;14.13;;
71969;SDS011;59838;52.152;5.436;2022-11-15T01:18:44;42.30;;;13.57;;
71969;SDS011;59838;52.152;5.436;2022-11-15T01:21:15;39.63;;;13.55;;
71969;SDS011;59838;52.152;5.436;2022-11-15T01:23:43;34.63;;;13.30;;
71969;SDS011;59838;52.152;5.436;2022-11-15T01:26:12;30.30;;;12.70;;
71969;SDS011;59838;52.152;5.436;2022-11-15T01:28:40;37.90;;;12.95;;
71969;SDS011;59838;52.152;5.436;2022-11-15T01:31:16;34.95;;;12.85;;
71969;SDS011;59838;52.152;5.436;2022-11-15T01:33:44;37.80;;;13.00;;
71969;SDS011;59838;52.152;5.436;2022-11-15T01:36:21;31.35;;;12.70;;
71969;SDS011;59838;52.152;5.436;2022-11-15T01:38:55;28.83;;;12.20;;
71969;SDS011;59838;52.152;5.436;2022-11-15T01:41:26;30.83;;;11.77;;
71969;SDS011;59838;52.152;5.436;2022-11-15T01:44:44;30.85;;;12.68;;
71969;SDS011;59838;52.152;5.436;2022-11-15T01:47:03;34.42;;;11.90;;
71969;SDS011;59838;52.152;5.436;2022-11-15T01:49:35;32.15;;;11.75;;
71969;SDS011;59838;52.152;5.436;2022-11-15T01:52:07;34.80;;;12.90;;
71969;SDS011;59838;52.152;5.436;2022-11-15T01:54:36;35.45;;;12.68;;
71969;SDS011;59838;52.152;5.436;2022-11-15T01:57:04;39.05;;;12.63;;
71969;SDS011;59838;52.152;5.436;2022-11-15T01:59:34;38.28;;;13.13;;
71969;SDS011;59838;52.152;5.436;2022-11-15T02:02:02;33.10;;;12.55;;
71969;SDS011;59838;52.152;5.436;2022-11-15T02:04:30;33.33;;;11.87;;
71969;SDS011;59838;52.152;5.436;2022-11-15T02:06:58;38.15;;;13.13;;
71969;SDS011;59838;52.152;5.436;2022-11-15T02:09:25;31.48;;;12.18;;
71969;SDS011;59838;52.152;5.436;2022-11-15T02:11:52;33.03;;;12.52;;
71969;SDS011;59838;52.152;5.436;2022-11-15T02:14:20;35.38;;;13.45;;
71969;SDS011;59838;52.152;5.436;2022-11-15T02:16:55;36.37;;;12.00;;
71969;SDS011;59838;52.152;5.436;2022-11-15T02:30:54;34.70;;;12.13;;
71969;SDS011;59838;52.152;5.436;2022-11-15T02:33:32;37.25;;;12.35;;
71969;SDS011;59838;52.152;5.436;2022-11-15T02:38:40;29.67;;;13.05;;
71969;SDS011;59838;52.152;5.436;2022-11-15T02:41:13;26.35;;;11.65;;
71969;SDS011;59838;52.152;5.436;2022-11-15T02:43:45;30.70;;;12.10;;
71969;SDS011;59838;52.152;5.436;2022-11-15T02:49:22;31.00;;;13.43;;
71969;SDS011;59838;52.152;5.436;2022-11-15T02:51:52;34.15;;;12.30;;
71969;SDS011;59838;52.152;5.436;2022-11-15T02:54:24;28.80;;;11.98;;
71969;SDS011;59838;52.152;5.436;2022-11-15T02:56:53;33.63;;;12.70;;
71969;SDS011;59838;52.152;5.436;2022-11-15T02:59:43;27.23;;;11.02;;
71969;SDS011;59838;52.152;5.436;2022-11-15T03:02:27;28.63;;;13.23;;
71969;SDS011;59838;52.152;5.436;2022-11-15T03:05:11;26.52;;;12.55;;
71969;SDS011;59838;52.152;5.436;2022-11-15T03:07:48;26.50;;;11.75;;
71969;SDS011;59838;52.152;5.436;2022-11-15T03:13:23;27.50;;;12.45;;
71969;SDS011;59838;52.152;5.436;2022-11-15T03:16:34;24.92;;;11.52;;
71969;SDS011;59838;52.152;5.436;2022-11-15T03:19:19;27.17;;;12.30;;
71969;SDS011;59838;52.152;5.436;2022-11-15T03:22:09;29.10;;;12.55;;
71969;SDS011;59838;52.152;5.436;2022-11-15T03:24:39;32.93;;;12.93;;
71969;SDS011;59838;52.152;5.436;2022-11-15T03:27:09;27.33;;;12.73;;
71969;SDS011;59838;52.152;5.436;2022-11-15T03:29:39;27.08;;;11.45;;
71969;SDS011;59838;52.152;5.436;2022-11-15T03:32:12;27.65;;;11.98;;
71969;SDS011;59838;52.152;5.436;2022-11-15T03:34:47;34.10;;;12.57;;
71969;SDS011;59838;52.152;5.436;2022-11-15T03:37:15;25.90;;;11.50;;
71969;SDS011;59838;52.152;5.436;2022-11-15T03:39:43;27.55;;;11.23;;
71969;SDS011;59838;52.152;5.436;2022-11-15T03:42:21;26.10;;;12.15;;
71969;SDS011;59838;52.152;5.436;2022-11-15T03:44:58;25.20;;;11.13;;
71969;SDS011;59838;52.152;5.436;2022-11-15T03:47:34;25.88;;;11.90;;
71969;SDS011;59838;52.152;5.436;2022-11-15T03:50:08;25.23;;;11.37;;
71969;SDS011;59838;52.152;5.436;2022-11-15T03:52:39;27.02;;;11.73;;
71969;SDS011;59838;52.152;5.436;2022-11-15T03:55:09;25.77;;;11.10;;
71969;SDS011;59838;52.152;5.436;2022-11-15T03:57:39;31.20;;;12.27;;
71969;SDS011;59838;52.152;5.436;2022-11-15T04:00:05;28.70;;;11.30;;
71969;SDS011;59838;52.152;5.436;2022-11-15T04:02:32;22.83;;;10.73;;
71969;SDS011;59838;52.152;5.436;2022-11-15T04:04:59;27.08;;;11.60;;
71969;SDS011;59838;52.152;5.436;2022-11-15T04:07:25;23.33;;;11.40;;
71969;SDS011;59838;52.152;5.436;2022-11-15T04:09:52;25.08;;;11.90;;
71969;SDS011;59838;52.152;5.436;2022-11-15T04:12:35;24.05;;;11.10;;
71969;SDS011;59838;52.152;5.436;2022-11-15T04:15:04;24.80;;;11.30;;
71969;SDS011;59838;52.152;5.436;2022-11-15T04:17:36;24.08;;;11.73;;
71969;SDS011;59838;52.152;5.436;2022-11-15T04:20:11;24.73;;;11.10;;
71969;SDS011;59838;52.152;5.436;2022-11-15T04:23:02;27.92;;;11.23;;
71969;SDS011;59838;52.152;5.436;2022-11-15T04:25:51;25.63;;;11.23;;
71969;SDS011;59838;52.152;5.436;2022-11-15T04:28:20;24.90;;;10.70;;
71969;SDS011;59838;52.152;5.436;2022-11-15T04:30:47;26.63;;;12.05;;
71969;SDS011;59838;52.152;5.436;2022-11-15T04:33:13;27.15;;;11.30;;
71969;SDS011;59838;52.152;5.436;2022-11-15T04:35:41;22.20;;;11.73;;
71969;SDS011;59838;52.152;5.436;2022-11-15T04:38:09;21.70;;;10.65;;
71969;SDS011;59838;52.152;5.436;2022-11-15T04:40:36;21.90;;;11.03;;
71969;SDS011;59838;52.152;5.436;2022-11-15T04:43:03;22.00;;;11.80;;
71969;SDS011;59838;52.152;5.436;2022-11-15T04:45:30;23.73;;;11.13;;
71969;SDS011;59838;52.152;5.436;2022-11-15T04:47:57;23.40;;;11.57;;
71969;SDS011;59838;52.152;5.436;2022-11-15T04:50:42;29.42;;;11.07;;
71969;SDS011;59838;52.152;5.436;2022-11-15T04:53:08;21.83;;;10.27;;
71969;SDS011;59838;52.152;5.436;2022-11-15T04:55:35;24.27;;;10.85;;
71969;SDS011;59838;52.152;5.436;2022-11-15T04:58:01;29.80;;;11.40;;
71969;SDS011;59838;52.152;5.436;2022-11-15T05:00:28;26.92;;;11.10;;
71969;SDS011;59838;52.152;5.436;2022-11-15T05:02:55;21.45;;;10.57;;
71969;SDS011;59838;52.152;5.436;2022-11-15T05:05:41;24.70;;;10.80;;
71969;SDS011;59838;52.152;5.436;2022-11-15T05:08:07;26.27;;;11.65;;
71969;SDS011;59838;52.152;5.436;2022-11-15T05:10:34;22.67;;;10.20;;
71969;SDS011;59838;52.152;5.436;2022-11-15T05:13:00;26.42;;;10.63;;
71969;SDS011;59838;52.152;5.436;2022-11-15T05:15:27;24.25;;;11.45;;
71969;SDS011;59838;52.152;5.436;2022-11-15T05:17:57;22.03;;;10.83;;
71969;SDS011;59838;52.152;5.436;2022-11-15T05:20:24;18.85;;;10.18;;
71969;SDS011;59838;52.152;5.436;2022-11-15T05:22:52;20.95;;;10.55;;
71969;SDS011;59838;52.152;5.436;2022-11-15T05:25:19;23.08;;;11.65;;
71969;SDS011;59838;52.152;5.436;2022-11-15T05:27:45;21.15;;;10.93;;
71969;SDS011;59838;52.152;5.436;2022-11-15T05:30:12;28.00;;;10.50;;
71969;SDS011;59838;52.152;5.436;2022-11-15T05:32:38;18.33;;;9.82;;
71969;SDS011;59838;52.152;5.436;2022-11-15T05:35:05;22.83;;;10.27;;
71969;SDS011;59838;52.152;5.436;2022-11-15T05:37:36;21.23;;;11.38;;
71969;SDS011;59838;52.152;5.436;2022-11-15T05:40:03;20.35;;;11.00;;
71969;SDS011;59838;52.152;5.436;2022-11-15T05:42:30;30.07;;;11.63;;
71969;SDS011;59838;52.152;5.436;2022-11-15T05:44:56;20.90;;;10.57;;
71969;SDS011;59838;52.152;5.436;2022-11-15T05:47:25;24.85;;;11.20;;
71969;SDS011;59838;52.152;5.436;2022-11-15T05:49:55;19.25;;;11.23;;
71969;SDS011;59838;52.152;5.436;2022-11-15T05:52:24;19.98;;;10.77;;
71969;SDS011;59838;52.152;5.436;2022-11-15T05:54:54;20.57;;;10.07;;
71969;SDS011;59838;52.152;5.436;2022-11-15T05:57:22;24.40;;;10.73;;
71969;SDS011;59838;52.152;5.436;2022-11-15T05:59:50;27.27;;;11.38;;
71969;SDS011;59838;52.152;5.436;2022-11-15T06:02:17;20.05;;;10.13;;
71969;SDS011;59838;52.152;5.436;2022-11-15T06:04:43;20.75;;;10.27;;
71969;SDS011;59838;52.152;5.436;2022-11-15T06:07:10;21.43;;;11.17;;
71969;SDS011;59838;52.152;5.436;2022-11-15T06:09:36;19.55;;;11.40;;
71969;SDS011;59838;52.152;5.436;2022-11-15T06:12:02;24.70;;;11.32;;
71969;SDS011;59838;52.152;5.436;2022-11-15T06:14:29;21.92;;;10.18;;
71969;SDS011;59838;52.152;5.436;2022-11-15T06:16:56;22.23;;;10.63;;
71969;SDS011;59838;52.152;5.436;2022-11-15T06:19:22;20.23;;;10.90;;
71969;SDS011;59838;52.152;5.436;2022-11-15T06:21:48;22.73;;;11.13;;
71969;SDS011;59838;52.152;5.436;2022-11-15T06:24:15;23.45;;;11.13;;
71969;SDS011;59838;52.152;5.436;2022-11-15T06:26:41;23.80;;;10.93;;
71969;SDS011;59838;52.152;5.436;2022-11-15T06:29:07;25.17;;;11.60;;
71969;SDS011;59838;52.152;5.436;2022-11-15T06:31:34;26.33;;;10.70;;
71969;SDS011;59838;52.152;5.436;2022-11-15T06:34:00;23.52;;;11.30;;
71969;SDS011;59838;52.152;5.436;2022-11-15T06:36:27;24.85;;;11.98;;
71969;SDS011;59838;52.152;5.436;2022-11-15T06:38:53;22.23;;;11.57;;
71969;SDS011;59838;52.152;5.436;2022-11-15T06:41:19;23.38;;;10.98;;
71969;SDS011;59838;52.152;5.436;2022-11-15T06:43:47;21.90;;;10.47;;
71969;SDS011;59838;52.152;5.436;2022-11-15T06:46:13;30.50;;;12.20;;
71969;SDS011;59838;52.152;5.436;2022-11-15T06:48:40;25.45;;;11.93;;
71969;SDS011;59838;52.152;5.436;2022-11-15T06:51:06;23.90;;;10.88;;
71969;SDS011;59838;52.152;5.436;2022-11-15T06:53:33;21.20;;;11.32;;
71969;SDS011;59838;52.152;5.436;2022-11-15T06:56:01;24.30;;;11.10;;
71969;SDS011;59838;52.152;5.436;2022-11-15T06:58:31;25.05;;;11.77;;
71969;SDS011;59838;52.152;5.436;2022-11-15T07:01:02;23.25;;;11.57;;
71969;SDS011;59838;52.152;5.436;2022-11-15T07:03:36;29.80;;;10.70;;
71969;SDS011;59838;52.152;5.436;2022-11-15T07:06:04;19.38;;;10.18;;
71969;SDS011;59838;52.152;5.436;2022-11-15T07:08:33;23.30;;;10.53;;
71969;SDS011;59838;52.152;5.436;2022-11-15T07:11:01;23.52;;;11.32;;
71969;SDS011;59838;52.152;5.436;2022-11-15T07:13:29;22.60;;;10.70;;
71969;SDS011;59838;52.152;5.436;2022-11-15T07:16:04;29.30;;;11.60;;
71969;SDS011;59838;52.152;5.436;2022-11-15T07:18:39;19.23;;;11.13;;
71969;SDS011;59838;52.152;5.436;2022-11-15T07:21:08;26.27;;;11.27;;
71969;SDS011;59838;52.152;5.436;2022-11-15T07:23:36;22.55;;;10.95;;
71969;SDS011;59838;52.152;5.436;2022-11-15T07:26:04;23.48;;;11.00;;
71969;SDS011;59838;52.152;5.436;2022-11-15T07:28:31;19.95;;;10.30;;
71969;SDS011;59838;52.152;5.436;2022-11-15T07:30:57;21.27;;;10.43;;
71969;SDS011;59838;52.152;5.436;2022-11-15T07:33:24;20.87;;;10.17;;
71969;SDS011;59838;52.152;5.436;2022-11-15T07:35:50;20.05;;;10.82;;
71969;SDS011;59838;52.152;5.436;2022-11-15T07:38:17;21.73;;;11.45;;
71969;SDS011;59838;52.152;5.436;2022-11-15T07:40:46;18.17;;;10.38;;
71969;SDS011;59838;52.152;5.436;2022-11-15T07:43:13;26.70;;;9.90;;
71969;SDS011;59838;52.152;5.436;2022-11-15T07:45:43;16.80;;;9.77;;
71969;SDS011;59838;52.152;5.436;2022-11-15T07:48:11;21.65;;;10.23;;
71969;SDS011;59838;52.152;5.436;2022-11-15T07:50:40;18.92;;;9.90;;
71969;SDS011;59838;52.152;5.436;2022-11-15T07:53:08;16.27;;;9.93;;
71969;SDS011;59838;52.152;5.436;2022-11-15T07:55:36;20.20;;;10.77;;
71969;SDS011;59838;52.152;5.436;2022-11-15T07:58:03;19.97;;;9.37;;
71969;SDS011;59838;52.152;5.436;2022-11-15T08:00:31;17.30;;;9.35;;
71969;SDS011;59838;52.152;5.436;2022-11-15T08:03:08;22.10;;;10.60;;
71969;SDS011;59838;52.152;5.436;2022-11-15T08:05:38;23.50;;;9.63;;
71969;SDS011;59838;52.152;5.436;2022-11-15T08:08:05;19.55;;;8.98;;
71969;SDS011;59838;52.152;5.436;2022-11-15T08:10:33;18.77;;;9.20;;
71969;SDS011;59838;52.152;5.436;2022-11-15T08:13:07;16.25;;;9.15;;
71969;SDS011;59838;52.152;5.436;2022-11-15T08:15:35;21.90;;;9.30;;
71969;SDS011;59838;52.152;5.436;2022-11-15T08:18:03;21.17;;;9.05;;
71969;SDS011;59838;52.152;5.436;2022-11-15T08:20:31;14.75;;;8.95;;
71969;SDS011;59838;52.152;5.436;2022-11-15T08:22:59;19.30;;;8.77;;
71969;SDS011;59838;52.152;5.436;2022-11-15T08:25:27;29.48;;;9.18;;
71969;SDS011;59838;52.152;5.436;2022-11-15T08:27:55;17.90;;;8.80;;
71969;SDS011;59838;52.152;5.436;2022-11-15T08:30:23;16.20;;;9.15;;
71969;SDS011;59838;52.152;5.436;2022-11-15T08:32:50;23.58;;;8.93;;
71969;SDS011;59838;52.152;5.436;2022-11-15T08:35:18;18.10;;;8.87;;
71969;SDS011;59838;52.152;5.436;2022-11-15T08:37:52;15.60;;;8.18;;
71969;SDS011;59838;52.152;5.436;2022-11-15T08:40:19;15.00;;;7.55;;
71969;SDS011;59838;52.152;5.436;2022-11-15T08:42:46;11.27;;;7.40;;
71969;SDS011;59838;52.152;5.436;2022-11-15T08:45:13;13.38;;;7.93;;
71969;SDS011;59838;52.152;5.436;2022-11-15T08:47:39;14.03;;;8.13;;
71969;SDS011;59838;52.152;5.436;2022-11-15T08:50:06;19.20;;;8.70;;
71969;SDS011;59838;52.152;5.436;2022-11-15T08:52:33;15.50;;;8.93;;
71969;SDS011;59838;52.152;5.436;2022-11-15T08:54:59;21.60;;;8.77;;
71969;SDS011;59838;52.152;5.436;2022-11-15T08:57:28;14.40;;;8.45;;
71969;SDS011;59838;52.152;5.436;2022-11-15T08:59:56;16.53;;;8.83;;
71969;SDS011;59838;52.152;5.436;2022-11-15T09:02:23;16.42;;;8.27;;
71969;SDS011;59838;52.152;5.436;2022-11-15T09:04:50;17.08;;;8.55;;
71969;SDS011;59838;52.152;5.436;2022-11-15T09:07:16;11.45;;;7.38;;
71969;SDS011;59838;52.152;5.436;2022-11-15T09:09:43;13.77;;;7.25;;
71969;SDS011;59838;52.152;5.436;2022-11-15T09:12:09;12.30;;;7.50;;
71969;SDS011;59838;52.152;5.436;2022-11-15T09:14:35;15.13;;;8.25;;
71969;SDS011;59838;52.152;5.436;2022-11-15T09:17:03;14.98;;;7.55;;
71969;SDS011;59838;52.152;5.436;2022-11-15T09:19:29;14.27;;;7.90;;
71969;SDS011;59838;52.152;5.436;2022-11-15T09:21:56;14.15;;;7.07;;
71969;SDS011;59838;52.152;5.436;2022-11-15T09:24:22;11.00;;;6.47;;
71969;SDS011;59838;52.152;5.436;2022-11-15T09:26:49;13.18;;;7.43;;
71969;SDS011;59838;52.152;5.436;2022-11-15T09:29:17;17.98;;;7.15;;
71969;SDS011;59838;52.152;5.436;2022-11-15T09:31:44;12.98;;;6.85;;
71969;SDS011;59838;52.152;5.436;2022-11-15T09:34:11;11.48;;;6.82;;
71969;SDS011;59838;52.152;5.436;2022-11-15T09:36:37;13.23;;;6.97;;
71969;SDS011;59838;52.152;5.436;2022-11-15T09:39:05;10.02;;;6.22;;
71969;SDS011;59838;52.152;5.436;2022-11-15T09:41:38;11.65;;;5.78;;
71969;SDS011;59838;52.152;5.436;2022-11-15T09:51:06;9.17;;;5.10;;
71969;SDS011;59838;52.152;5.436;2022-11-15T09:53:24;8.23;;;4.85;;
71969;SDS011;59838;52.152;5.436;2022-11-15T09:58:51;8.60;;;4.10;;
71969;SDS011;59838;52.152;5.436;2022-11-15T10:04:20;8.50;;;4.40;;
71969;SDS011;59838;52.152;5.436;2022-11-15T10:07:00;7.38;;;4.40;;
71969;SDS011;59838;52.152;5.436;2022-11-15T10:09:51;5.90;;;4.18;;
71969;SDS011;59838;52.152;5.436;2022-11-15T10:12:23;6.32;;;4.57;;
71969;SDS011;59838;52.152;5.436;2022-11-15T10:14:55;6.97;;;4.35;;
71969;SDS011;59838;52.152;5.436;2022-11-15T10:20:28;9.02;;;4.07;;
71969;SDS011;59838;52.152;5.436;2022-11-15T10:22:59;7.18;;;3.88;;
71969;SDS011;59838;52.152;5.436;2022-11-15T10:25:27;5.18;;;3.30;;
71969;SDS011;59838;52.152;5.436;2022-11-15T10:27:59;3.83;;;2.92;;
71969;SDS011;59838;52.152;5.436;2022-11-15T10:30:31;4.03;;;2.87;;
71969;SDS011;59838;52.152;5.436;2022-11-15T10:33:10;5.78;;;3.03;;
71969;SDS011;59838;52.152;5.436;2022-11-15T10:35:43;5.70;;;2.60;;
71969;SDS011;59838;52.152;5.436;2022-11-15T10:38:10;6.78;;;2.80;;
71969;SDS011;59838;52.152;5.436;2022-11-15T10:40:38;3.08;;;2.47;;
71969;SDS011;59838;52.152;5.436;2022-11-15T10:43:13;3.23;;;2.30;;
71969;SDS011;59838;52.152;5.436;2022-11-15T10:45:42;4.40;;;2.10;;
71969;SDS011;59838;52.152;5.436;2022-11-15T10:53:21;3.83;;;2.00;;
71969;SDS011;59838;52.152;5.436;2022-11-15T10:55:50;6.07;;;2.00;;
71969;SDS011;59838;52.152;5.436;2022-11-15T10:58:31;2.70;;;1.90;;
71969;SDS011;59838;52.152;5.436;2022-11-15T11:01:11;4.18;;;1.20;;
71969;SDS011;59838;52.152;5.436;2022-11-15T11:03:45;6.13;;;1.65;;
71969;SDS011;59838;52.152;5.436;2022-11-15T11:06:28;3.90;;;1.38;;
71969;SDS011;59838;52.152;5.436;2022-11-15T11:09:00;3.73;;;1.77;;
71969;SDS011;59838;52.152;5.436;2022-11-15T11:11:47;2.30;;;0.98;;
71969;SDS011;59838;52.152;5.436;2022-11-15T11:14:20;3.35;;;1.08;;
71969;SDS011;59838;52.152;5.436;2022-11-15T11:16:59;3.47;;;1.13;;
71969;SDS011;59838;52.152;5.436;2022-11-15T11:19:46;3.78;;;1.10;;
71969;SDS011;59838;52.152;5.436;2022-11-15T11:22:23;1.90;;;1.00;;
71969;SDS011;59838;52.152;5.436;2022-11-15T11:25:08;5.82;;;1.35;;
71969;SDS011;59838;52.152;5.436;2022-11-15T11:30:34;3.25;;;1.05;;
71969;SDS011;59838;52.152;5.436;2022-11-15T11:33:25;3.30;;;0.80;;
71969;SDS011;59838;52.152;5.436;2022-11-15T11:36:03;4.20;;;1.03;;
71969;SDS011;59838;52.152;5.436;2022-11-15T11:47:13;2.35;;;0.95;;
71969;SDS011;59838;52.152;5.436;2022-11-15T11:49:46;2.00;;;0.90;;
71969;SDS011;59838;52.152;5.436;2022-11-15T11:57:31;2.40;;;1.00;;
71969;SDS011;59838;52.152;5.436;2022-11-15T12:00:13;2.53;;;0.80;;
71969;SDS011;59838;52.152;5.436;2022-11-15T12:05:39;3.45;;;1.40;;
71969;SDS011;59838;52.152;5.436;2022-11-15T12:08:22;2.58;;;0.75;;
71969;SDS011;59838;52.152;5.436;2022-11-15T12:10:53;3.35;;;1.23;;
71969;SDS011;59838;52.152;5.436;2022-11-15T12:13:28;2.47;;;0.63;;
71969;SDS011;59838;52.152;5.436;2022-11-15T12:18:42;4.55;;;0.63;;
71969;SDS011;59838;52.152;5.436;2022-11-15T12:21:17;5.97;;;0.73;;
71969;SDS011;59838;52.152;5.436;2022-11-15T12:23:54;2.88;;;0.45;;
71969;SDS011;59838;52.152;5.436;2022-11-15T12:26:28;3.88;;;0.40;;
71969;SDS011;59838;52.152;5.436;2022-11-15T12:29:12;2.13;;;0.53;;
71969;SDS011;59838;52.152;5.436;2022-11-15T12:31:52;2.97;;;0.70;;
71969;SDS011;59838;52.152;5.436;2022-11-15T12:36:50;3.38;;;0.60;;
71969;SDS011;59838;52.152;5.436;2022-11-15T12:39:17;3.22;;;0.32;;
71969;SDS011;59838;52.152;5.436;2022-11-15T12:59:55;1.50;;;0.40;;
71969;SDS011;59838;52.152;5.436;2022-11-15T13:02:31;3.85;;;0.50;;
71969;SDS011;59838;52.152;5.436;2022-11-15T13:17:46;3.03;;;0.70;;
71969;SDS011;59838;52.152;5.436;2022-11-15T13:34:03;5.23;;;0.63;;
71969;SDS011;59838;52.152;5.436;2022-11-15T13:37:02;4.28;;;0.60;;
71969;SDS011;59838;52.152;5.436;2022-11-15T13:39:30;1.95;;;0.60;;
71969;SDS011;59838;52.152;5.436;2022-11-15T13:41:57;4.63;;;0.60;;
71969;SDS011;59838;52.152;5.436;2022-11-15T13:44:25;3.75;;;0.60;;
71969;SDS011;59838;52.152;5.436;2022-11-15T13:47:04;2.90;;;0.70;;
71969;SDS011;59838;52.152;5.436;2022-11-15T13:49:41;2.38;;;0.45;;
71969;SDS011;59838;52.152;5.436;2022-11-15T13:52:09;5.25;;;0.60;;
71969;SDS011;59838;52.152;5.436;2022-11-15T13:54:41;1.90;;;0.40;;
71969;SDS011;59838;52.152;5.436;2022-11-15T13:57:20;3.50;;;0.40;;
71969;SDS011;59838;52.152;5.436;2022-11-15T13:59:51;2.23;;;0.40;;
71969;SDS011;59838;52.152;5.436;2022-11-15T14:02:21;4.05;;;0.60;;
71969;SDS011;59838;52.152;5.436;2022-11-15T14:04:56;3.38;;;0.50;;
71969;SDS011;59838;52.152;5.436;2022-11-15T14:07:54;4.57;;;0.40;;
71969;SDS011;59838;52.152;5.436;2022-11-15T14:10:27;2.05;;;0.65;;
71969;SDS011;59838;52.152;5.436;2022-11-15T14:12:58;3.67;;;0.50;;
71969;SDS011;59838;52.152;5.436;2022-11-15T14:15:29;2.58;;;0.60;;
71969;SDS011;59838;52.152;5.436;2022-11-15T14:17:58;4.25;;;0.57;;
71969;SDS011;59838;52.152;5.436;2022-11-15T14:22:52;0.80;;;0.30;;
71969;SDS011;59838;52.152;5.436;2022-11-15T14:25:24;4.53;;;0.47;;
71969;SDS011;59838;52.152;5.436;2022-11-15T14:28:08;5.93;;;0.50;;
71969;SDS011;59838;52.152;5.436;2022-11-15T14:30:38;2.55;;;0.55;;
71969;SDS011;59838;52.152;5.436;2022-11-15T14:33:40;2.35;;;0.60;;
71969;SDS011;59838;52.152;5.436;2022-11-15T14:36:33;1.67;;;0.40;;
71969;SDS011;59838;52.152;5.436;2022-11-15T14:38:52;2.73;;;0.40;;
71969;SDS011;59838;52.152;5.436;2022-11-15T14:41:24;3.40;;;0.50;;
71969;SDS011;59838;52.152;5.436;2022-11-15T14:43:52;1.98;;;0.50;;
71969;SDS011;59838;52.152;5.436;2022-11-15T14:46:19;3.13;;;0.50;;
71969;SDS011;59838;52.152;5.436;2022-11-15T14:48:45;1.27;;;0.50;;
71969;SDS011;59838;52.152;5.436;2022-11-15T14:51:13;2.83;;;0.80;;
71969;SDS011;59838;52.152;5.436;2022-11-15T14:53:41;4.10;;;0.40;;
71969;SDS011;59838;52.152;5.436;2022-11-15T14:56:08;2.20;;;0.50;;
71969;SDS011;59838;52.152;5.436;2022-11-15T14:58:35;2.17;;;0.32;;
71969;SDS011;59838;52.152;5.436;2022-11-15T15:01:02;1.70;;;0.50;;
71969;SDS011;59838;52.152;5.436;2022-11-15T15:03:39;2.77;;;0.63;;
71969;SDS011;59838;52.152;5.436;2022-11-15T15:06:06;3.42;;;0.45;;
71969;SDS011;59838;52.152;5.436;2022-11-15T15:08:41;2.60;;;0.30;;
71969;SDS011;59838;52.152;5.436;2022-11-15T15:11:14;2.15;;;0.38;;
71969;SDS011;59838;52.152;5.436;2022-11-15T15:13:51;3.92;;;0.47;;
71969;SDS011;59838;52.152;5.436;2022-11-15T15:16:18;1.90;;;0.27;;
71969;SDS011;59838;52.152;5.436;2022-11-15T15:18:45;1.60;;;0.40;;
71969;SDS011;59838;52.152;5.436;2022-11-15T15:21:27;1.35;;;0.20;;
71969;SDS011;59838;52.152;5.436;2022-11-15T15:24:01;4.45;;;0.40;;
71969;SDS011;59838;52.152;5.436;2022-11-15T15:26:28;4.50;;;0.50;;
71969;SDS011;59838;52.152;5.436;2022-11-15T15:28:54;3.53;;;0.40;;
71969;SDS011;59838;52.152;5.436;2022-11-15T15:31:21;1.15;;;0.40;;
71969;SDS011;59838;52.152;5.436;2022-11-15T15:33:47;4.00;;;0.50;;
71969;SDS011;59838;52.152;5.436;2022-11-15T15:36:14;2.58;;;0.52;;
71969;SDS011;59838;52.152;5.436;2022-11-15T15:38:44;2.95;;;0.40;;
71969;SDS011;59838;52.152;5.436;2022-11-15T15:41:13;3.13;;;0.80;;
71969;SDS011;59838;52.152;5.436;2022-11-15T15:43:41;3.45;;;0.25;;
71969;SDS011;59838;52.152;5.436;2022-11-15T15:46:11;1.25;;;0.30;;
71969;SDS011;59838;52.152;5.436;2022-11-15T15:48:39;2.25;;;0.55;;
71969;SDS011;59838;52.152;5.436;2022-11-15T15:51:06;1.70;;;0.52;;
71969;SDS011;59838;52.152;5.436;2022-11-15T15:53:44;1.73;;;0.43;;
71969;SDS011;59838;52.152;5.436;2022-11-15T15:56:11;1.60;;;0.55;;
71969;SDS011;59838;52.152;5.436;2022-11-15T15:58:37;7.47;;;0.43;;
71969;SDS011;59838;52.152;5.436;2022-11-15T16:01:04;4.38;;;0.30;;
71969;SDS011;59838;52.152;5.436;2022-11-15T16:03:30;2.72;;;0.88;;
71969;SDS011;59838;52.152;5.436;2022-11-15T16:05:57;2.40;;;0.30;;
71969;SDS011;59838;52.152;5.436;2022-11-15T16:08:24;1.67;;;0.30;;
71969;SDS011;59838;52.152;5.436;2022-11-15T16:10:52;2.53;;;0.40;;
71969;SDS011;59838;52.152;5.436;2022-11-15T16:13:19;1.85;;;0.30;;
71969;SDS011;59838;52.152;5.436;2022-11-15T16:15:52;2.80;;;0.40;;
71969;SDS011;59838;52.152;5.436;2022-11-15T16:18:20;3.03;;;0.30;;
71969;SDS011;59838;52.152;5.436;2022-11-15T16:20:48;2.03;;;0.40;;
71969;SDS011;59838;52.152;5.436;2022-11-15T16:23:22;2.92;;;0.50;;
71969;SDS011;59838;52.152;5.436;2022-11-15T16:25:51;2.00;;;0.40;;
71969;SDS011;59838;52.152;5.436;2022-11-15T16:28:20;3.35;;;0.50;;
71969;SDS011;59838;52.152;5.436;2022-11-15T16:30:59;3.30;;;0.30;;
71969;SDS011;59838;52.152;5.436;2022-11-15T16:33:26;6.45;;;0.30;;
71969;SDS011;59838;52.152;5.436;2022-11-15T16:35:52;1.55;;;0.30;;
71969;SDS011;59838;52.152;5.436;2022-11-15T16:38:19;2.83;;;0.30;;
71969;SDS011;59838;52.152;5.436;2022-11-15T16:40:46;1.17;;;0.30;;
71969;SDS011;59838;52.152;5.436;2022-11-15T16:43:12;3.13;;;0.70;;
71969;SDS011;59838;52.152;5.436;2022-11-15T16:45:39;2.70;;;0.32;;